Time;durP1;ratioP1;P1;durP2;ratioP2;P2;SDS_P1;SDS_P2;PMS_P1;PMS_P2;Temp;Humidity;BMP_temperature;BMP_pressure;BME280_temperature;BME280_humidity;BME280_pressure;Samples;Min_cycle;Max_cycle;Signal;HPM_P1;HPM_P2
2024/01/12 00:01:29;;;;;;;7.40;7.30;;;0.30;99.90;;;;;;5005778;28;20498;-75
2024/01/12 00:03:56;;;;;;;7.30;7.20;;;0.40;99.90;;;;;;5008859;28;20466;-74
2024/01/12 00:06:25;;;;;;;7.10;7.00;;;0.30;99.90;;;;;;5003020;28;21000;-72
2024/01/12 00:08:53;;;;;;;7.00;6.90;;;0.30;99.90;;;;;;5001401;28;20471;-74
2024/01/12 00:11:20;;;;;;;7.50;7.40;;;0.30;99.90;;;;;;5011225;28;20465;-74
2024/01/12 00:13:47;;;;;;;7.57;7.47;;;0.40;99.90;;;;;;5005118;28;20992;-71
2024/01/12 00:16:13;;;;;;;7.33;7.23;;;0.40;99.90;;;;;;5000047;28;20550;-71
2024/01/12 00:18:40;;;;;;;7.07;6.97;;;0.40;99.90;;;;;;5008314;28;20470;-71
2024/01/12 00:21:07;;;;;;;7.20;7.10;;;0.50;99.90;;;;;;5004987;28;20593;-71
2024/01/12 00:23:34;;;;;;;6.97;6.87;;;0.50;99.90;;;;;;5015980;28;20454;-71
2024/01/12 00:26:03;;;;;;;7.27;7.17;;;0.50;99.90;;;;;;5004004;28;20486;-74
2024/01/12 00:28:32;;;;;;;7.50;7.40;;;0.50;99.90;;;;;;5010684;28;20459;-73
2024/01/12 00:31:01;;;;;;;7.80;7.70;;;0.50;99.90;;;;;;5004419;28;20472;-71
2024/01/12 00:33:28;;;;;;;7.83;7.73;;;0.50;99.90;;;;;;5003106;28;20810;-71
2024/01/12 00:35:55;;;;;;;8.00;7.90;;;0.40;99.90;;;;;;5016888;28;20565;-73
2024/01/12 00:38:22;;;;;;;7.90;7.80;;;0.40;99.90;;;;;;5006896;28;20470;-72
2024/01/12 00:40:50;;;;;;;7.47;7.37;;;0.50;99.90;;;;;;5006589;28;20601;-71
2024/01/12 00:43:19;;;;;;;8.00;7.90;;;0.50;99.90;;;;;;5006543;28;20825;-74
2024/01/12 00:45:47;;;;;;;8.30;8.20;;;0.50;99.90;;;;;;5006145;28;20907;-73
2024/01/12 00:48:13;;;;;;;7.50;7.40;;;0.60;99.90;;;;;;5017980;28;20459;-72
2024/01/12 00:50:42;;;;;;;7.57;7.47;;;0.40;99.90;;;;;;5004998;28;20474;-72
2024/01/12 00:53:08;;;;;;;7.20;7.10;;;0.40;99.90;;;;;;5010022;28;20890;-71
2024/01/12 00:55:35;;;;;;;7.40;7.30;;;0.30;99.90;;;;;;5029661;28;20496;-71
2024/01/12 00:58:04;;;;;;;7.67;7.57;;;0.30;99.90;;;;;;5015540;28;20466;-72
2024/01/12 01:00:32;;;;;;;7.17;7.07;;;0.20;99.90;;;;;;5015091;28;20483;-72
2024/01/12 01:03:01;;;;;;;7.50;7.40;;;0.30;99.90;;;;;;5009436;28;20525;-71
2024/01/12 01:05:28;;;;;;;8.20;8.10;;;0.40;99.90;;;;;;5018537;28;21130;-72
2024/01/12 01:07:55;;;;;;;7.63;7.53;;;0.50;99.90;;;;;;5012858;28;20458;-70
2024/01/12 01:10:25;;;;;;;7.63;7.53;;;0.60;99.90;;;;;;5012929;28;20466;-72
2024/01/12 01:12:54;;;;;;;7.90;7.80;;;0.60;99.90;;;;;;5000729;28;20807;-73
2024/01/12 01:15:21;;;;;;;8.40;8.30;;;0.60;99.90;;;;;;5003740;28;20467;-72
2024/01/12 01:17:50;;;;;;;8.13;8.03;;;0.60;99.90;;;;;;5000421;28;20471;-72
2024/01/12 01:20:16;;;;;;;7.80;7.70;;;0.50;99.90;;;;;;5007124;28;20488;-74
2024/01/12 01:22:45;;;;;;;7.50;7.40;;;0.50;99.90;;;;;;5001831;28;20470;-74
2024/01/12 01:25:13;;;;;;;8.50;8.40;;;0.50;99.90;;;;;;5009170;28;20462;-72
2024/01/12 01:27:42;;;;;;;8.40;8.30;;;0.40;99.90;;;;;;5002956;28;20524;-74
2024/01/12 01:30:14;;;;;;;8.50;8.40;;;0.50;99.90;;;;;;5001653;28;20474;-74
2024/01/12 01:32:40;;;;;;;8.70;8.60;;;0.40;99.90;;;;;;5012913;28;20891;-72
2024/01/12 01:35:11;;;;;;;8.80;8.70;;;0.50;99.90;;;;;;5003056;28;20473;-72
2024/01/12 01:37:38;;;;;;;8.40;8.30;;;0.50;99.90;;;;;;5008959;28;20458;-72
2024/01/12 01:40:07;;;;;;;7.27;7.17;;;0.30;99.90;;;;;;5002666;28;20955;-74
2024/01/12 01:42:34;;;;;;;7.90;7.80;;;0.20;99.90;;;;;;5005293;28;20465;-74
2024/01/12 01:45:04;;;;;;;7.70;7.60;;;0.30;99.90;;;;;;5003744;28;20487;-71
2024/01/12 01:47:32;;;;;;;7.80;7.70;;;0.30;99.90;;;;;;5002232;28;20462;-73
2024/01/12 01:50:00;;;;;;;7.60;7.50;;;0.30;99.90;;;;;;5006925;28;20558;-72
2024/01/12 01:52:29;;;;;;;7.10;7.00;;;0.20;99.90;;;;;;5006406;28;20465;-73
2024/01/12 01:54:59;;;;;;;7.10;7.00;;;0.10;99.90;;;;;;4998340;28;20856;-71
2024/01/12 01:57:27;;;;;;;7.00;6.90;;;0.10;99.90;;;;;;5011678;28;20629;-74
2024/01/12 01:59:55;;;;;;;7.50;7.40;;;0.10;99.90;;;;;;4999153;28;20498;-71
2024/01/12 02:02:22;;;;;;;7.20;7.10;;;0.20;99.90;;;;;;5005267;28;20500;-75
2024/01/12 02:04:52;;;;;;;7.20;7.10;;;0.20;99.90;;;;;;5009552;28;20554;-73
2024/01/12 02:07:20;;;;;;;7.00;6.90;;;0.20;99.90;;;;;;5007314;28;20462;-72
2024/01/12 02:09:48;;;;;;;6.77;6.67;;;0.10;99.90;;;;;;5004063;28;20768;-71
2024/01/12 02:12:15;;;;;;;7.30;7.20;;;0.00;99.90;;;;;;5000393;28;20462;-71
2024/01/12 02:14:44;;;;;;;6.73;6.63;;;-0.10;99.90;;;;;;5005368;28;20497;-70
2024/01/12 02:17:13;;;;;;;6.70;6.60;;;-0.10;99.90;;;;;;4999494;28;20469;-71
2024/01/12 02:19:40;;;;;;;6.90;6.80;;;0.00;99.90;;;;;;5005552;28;20456;-72
2024/01/12 02:22:09;;;;;;;7.10;7.00;;;0.10;99.90;;;;;;5005418;28;20481;-73
2024/01/12 02:24:36;;;;;;;7.30;7.20;;;0.20;99.90;;;;;;4995287;28;20874;-74
2024/01/12 02:27:03;;;;;;;6.73;6.63;;;0.10;99.90;;;;;;4995395;28;20469;-72
2024/01/12 02:29:30;;;;;;;6.50;6.40;;;0.10;99.90;;;;;;5005085;28;20462;-73
2024/01/12 02:31:58;;;;;;;6.80;6.70;;;0.20;99.90;;;;;;5008680;28;20717;-74
2024/01/12 02:34:24;;;;;;;6.70;6.60;;;0.20;99.90;;;;;;4997828;28;20465;-75
2024/01/12 02:36:52;;;;;;;6.73;6.63;;;0.10;99.90;;;;;;5010433;28;20975;-75
2024/01/12 02:39:20;;;;;;;6.70;6.60;;;0.10;99.90;;;;;;5001681;28;20478;-70
2024/01/12 02:41:46;;;;;;;6.20;6.10;;;0.20;99.90;;;;;;5002193;28;21027;-72
2024/01/12 02:44:14;;;;;;;6.50;6.40;;;0.20;99.90;;;;;;5001513;28;20486;-70
2024/01/12 02:46:41;;;;;;;6.77;6.67;;;0.30;99.90;;;;;;5005142;28;20827;-71
2024/01/12 02:49:09;;;;;;;6.70;6.60;;;0.30;99.90;;;;;;5001763;28;20461;-72
2024/01/12 02:51:36;;;;;;;6.90;6.80;;;0.40;99.90;;;;;;5001507;28;20502;-72
2024/01/12 02:54:02;;;;;;;7.13;7.03;;;0.30;99.90;;;;;;5000644;28;20859;-70
2024/01/12 02:56:31;;;;;;;6.63;6.53;;;0.30;99.90;;;;;;4998405;28;20589;-70
2024/01/12 02:58:58;;;;;;;6.97;6.87;;;0.40;99.90;;;;;;4996740;28;20475;-73
2024/01/12 03:01:25;;;;;;;6.53;6.43;;;0.50;99.90;;;;;;5009155;28;20544;-70
2024/01/12 03:03:52;;;;;;;6.90;6.80;;;0.50;99.90;;;;;;5012654;28;20831;-73
2024/01/12 03:06:18;;;;;;;7.10;7.00;;;0.50;99.90;;;;;;5004729;28;20463;-73
2024/01/12 03:08:45;;;;;;;6.73;6.63;;;0.60;99.90;;;;;;4999670;28;20467;-73
2024/01/12 03:11:12;;;;;;;7.40;7.30;;;0.50;99.90;;;;;;5002382;28;20473;-73
2024/01/12 03:13:41;;;;;;;6.80;6.70;;;0.60;99.90;;;;;;4998024;28;20488;-73
2024/01/12 03:16:18;;;;;;;7.00;6.90;;;0.60;99.90;;;;;;5003908;28;20858;-72
2024/01/12 03:18:45;;;;;;;6.73;6.63;;;0.70;99.90;;;;;;5001758;28;20578;-70
2024/01/12 03:21:12;;;;;;;6.50;6.40;;;0.60;99.90;;;;;;4996139;28;20828;-71
2024/01/12 03:23:39;;;;;;;6.37;6.27;;;0.50;99.90;;;;;;4994960;28;20466;-72
2024/01/12 03:26:05;;;;;;;6.80;6.70;;;0.40;99.90;;;;;;5003273;28;20470;-74
2024/01/12 03:28:35;;;;;;;6.67;6.57;;;0.40;99.90;;;;;;5005479;28;20508;-72
2024/01/12 03:31:04;;;;;;;6.20;6.10;;;0.50;99.90;;;;;;5005179;28;20465;-72
2024/01/12 03:33:31;;;;;;;6.70;6.60;;;0.40;99.90;;;;;;5004660;28;20486;-71
2024/01/12 03:35:59;;;;;;;6.37;6.27;;;0.40;99.90;;;;;;5003632;28;20782;-72
2024/01/12 03:38:26;;;;;;;6.23;6.13;;;0.40;99.90;;;;;;4999106;28;20805;-71
2024/01/12 03:40:53;;;;;;;6.73;6.63;;;0.40;99.90;;;;;;5004215;28;20493;-73
2024/01/12 03:43:21;;;;;;;6.87;6.77;;;0.50;99.90;;;;;;5015822;28;20773;-73
2024/01/12 03:45:47;;;;;;;7.03;6.93;;;0.60;99.90;;;;;;5020676;28;20844;-73
2024/01/12 03:48:16;;;;;;;7.10;7.00;;;0.60;99.90;;;;;;5012276;28;20489;-73
2024/01/12 03:50:43;;;;;;;7.10;7.00;;;0.60;99.90;;;;;;4997456;28;20473;-74
2024/01/12 03:53:11;;;;;;;6.70;6.60;;;0.40;99.90;;;;;;5013317;28;20469;-74
2024/01/12 03:55:37;;;;;;;6.90;6.80;;;0.30;99.90;;;;;;5010825;28;20446;-74
2024/01/12 03:58:04;;;;;;;6.73;6.63;;;0.50;99.90;;;;;;5010813;28;20471;-72
2024/01/12 04:00:31;;;;;;;7.30;7.20;;;0.60;99.90;;;;;;5012030;28;20458;-72
2024/01/12 04:02:58;;;;;;;6.33;6.23;;;0.70;99.90;;;;;;5009678;28;20879;-71
2024/01/12 04:05:26;;;;;;;6.57;6.47;;;0.50;99.90;;;;;;4998491;28;20976;-71
2024/01/12 04:07:53;;;;;;;6.53;6.43;;;0.40;99.90;;;;;;5009991;28;20903;-71
2024/01/12 04:10:20;;;;;;;6.20;6.10;;;0.50;99.90;;;;;;5012996;28;20460;-71
2024/01/12 04:12:47;;;;;;;6.60;6.50;;;0.60;99.90;;;;;;5009986;28;20466;-71
2024/01/12 04:15:14;;;;;;;6.80;6.70;;;0.60;99.90;;;;;;5007677;28;20659;-72
2024/01/12 04:17:41;;;;;;;6.90;6.80;;;0.60;99.90;;;;;;4999558;28;20470;-72
2024/01/12 04:20:10;;;;;;;7.00;6.90;;;0.70;99.90;;;;;;5011594;28;20450;-74
2024/01/12 04:22:39;;;;;;;6.80;6.70;;;0.70;99.90;;;;;;4999403;28;20494;-73
2024/01/12 04:25:07;;;;;;;5.97;5.87;;;0.80;99.90;;;;;;5011607;28;20457;-71
2024/01/12 04:27:33;;;;;;;6.60;6.50;;;0.70;99.90;;;;;;5006519;28;20462;-71
2024/01/12 04:30:00;;;;;;;6.37;6.27;;;0.70;99.90;;;;;;5005311;28;20478;-73
2024/01/12 04:32:27;;;;;;;6.37;6.27;;;0.70;99.90;;;;;;5007170;28;20470;-74
2024/01/12 04:34:55;;;;;;;6.80;6.70;;;0.80;99.90;;;;;;5010348;28;21044;-74
2024/01/12 04:37:22;;;;;;;6.70;6.60;;;0.80;99.90;;;;;;5015544;28;20569;-73
2024/01/12 04:39:51;;;;;;;7.27;7.17;;;0.80;99.90;;;;;;5007226;28;20488;-74
2024/01/12 04:42:18;;;;;;;6.97;6.87;;;0.90;99.90;;;;;;4998638;28;20495;-75
2024/01/12 04:44:45;;;;;;;7.40;7.30;;;0.90;99.90;;;;;;5014234;28;20525;-75
2024/01/12 04:47:11;;;;;;;7.30;7.20;;;0.90;99.90;;;;;;5008567;28;20465;-73
2024/01/12 04:49:38;;;;;;;6.90;6.80;;;0.80;99.90;;;;;;5008066;28;20584;-74
2024/01/12 04:52:06;;;;;;;6.77;6.67;;;0.80;99.90;;;;;;5009866;28;20466;-72
2024/01/12 04:54:33;;;;;;;6.87;6.77;;;0.80;99.90;;;;;;5015038;28;20462;-75
2024/01/12 04:57:01;;;;;;;6.70;6.60;;;0.70;99.90;;;;;;5004387;28;20566;-75
2024/01/12 04:59:28;;;;;;;6.70;6.60;;;0.80;99.90;;;;;;5003198;28;20473;-75
2024/01/12 05:01:55;;;;;;;6.30;6.20;;;0.80;99.90;;;;;;4999797;28;20867;-73
2024/01/12 05:04:22;;;;;;;6.60;6.50;;;0.70;99.90;;;;;;5004418;28;20462;-73
2024/01/12 05:06:49;;;;;;;6.70;6.60;;;0.70;99.90;;;;;;5017484;28;20462;-75
2024/01/12 05:09:17;;;;;;;7.10;7.00;;;0.80;99.90;;;;;;5006723;28;20455;-74
2024/01/12 05:11:43;;;;;;;6.93;6.83;;;0.80;99.90;;;;;;5008286;28;20458;-72
2024/01/12 05:14:12;;;;;;;6.90;6.80;;;0.80;99.90;;;;;;5010705;28;20478;-73
2024/01/12 05:16:39;;;;;;;7.50;7.40;;;0.80;99.90;;;;;;5003914;28;20883;-75
2024/01/12 05:19:07;;;;;;;7.33;7.23;;;0.70;99.90;;;;;;4999884;28;20635;-75
2024/01/12 05:21:34;;;;;;;7.70;7.60;;;0.80;99.90;;;;;;5007651;28;20496;-73
2024/01/12 05:24:02;;;;;;;7.93;7.83;;;0.90;99.90;;;;;;5004733;28;20818;-75
2024/01/12 05:26:29;;;;;;;7.37;7.27;;;1.00;99.90;;;;;;5009607;28;20459;-74
2024/01/12 05:28:55;;;;;;;7.60;7.50;;;1.00;99.90;;;;;;5005411;28;20489;-72
2024/01/12 05:31:23;;;;;;;7.57;7.47;;;0.90;99.90;;;;;;5008775;28;20462;-72
2024/01/12 05:33:50;;;;;;;7.80;7.70;;;0.90;99.90;;;;;;5004317;28;20470;-73
2024/01/12 05:36:17;;;;;;;7.60;7.50;;;0.80;99.90;;;;;;5010829;28;20469;-74
2024/01/12 05:38:44;;;;;;;7.37;7.27;;;0.80;99.90;;;;;;5003599;28;20470;-75
2024/01/12 05:41:11;;;;;;;7.33;7.23;;;0.70;99.90;;;;;;5008043;28;20856;-75
2024/01/12 05:43:38;;;;;;;7.33;7.23;;;0.80;99.90;;;;;;5009299;28;20957;-74
2024/01/12 05:46:05;;;;;;;7.97;7.87;;;0.80;99.90;;;;;;4998983;28;20468;-74
2024/01/12 05:48:34;;;;;;;8.40;8.30;;;0.90;99.90;;;;;;4998779;28;20464;-73
2024/01/12 05:51:01;;;;;;;7.90;7.80;;;1.00;99.90;;;;;;5006799;28;20899;-73
2024/01/12 05:53:29;;;;;;;8.03;7.93;;;1.00;99.90;;;;;;5007735;28;20498;-74
2024/01/12 05:55:56;;;;;;;8.20;8.10;;;1.00;99.90;;;;;;5002404;28;20491;-72
2024/01/12 05:58:23;;;;;;;8.70;8.60;;;1.00;99.90;;;;;;5016220;28;20469;-72
2024/01/12 06:00:50;;;;;;;8.60;8.50;;;1.00;99.90;;;;;;5012502;28;20465;-74
2024/01/12 06:03:19;;;;;;;7.93;7.83;;;1.00;99.90;;;;;;5004043;28;20496;-72
2024/01/12 06:05:48;;;;;;;8.27;8.17;;;1.00;99.90;;;;;;5011280;28;20462;-74
2024/01/12 06:08:15;;;;;;;8.33;8.23;;;1.00;99.90;;;;;;5000544;28;20467;-72
2024/01/12 06:10:43;;;;;;;8.17;8.07;;;1.00;99.90;;;;;;5003513;28;20561;-75
2024/01/12 06:13:10;;;;;;;8.43;8.33;;;1.00;99.90;;;;;;5004163;28;20995;-75
2024/01/12 06:15:37;;;;;;;8.47;8.37;;;1.10;99.90;;;;;;5005680;28;20470;-74
2024/01/12 06:18:05;;;;;;;7.70;7.60;;;1.00;99.90;;;;;;5006538;28;20498;-73
2024/01/12 06:20:32;;;;;;;8.00;7.90;;;0.90;99.90;;;;;;5006331;28;20469;-75
2024/01/12 06:23:01;;;;;;;8.40;8.30;;;0.90;99.90;;;;;;5003796;28;20494;-76
2024/01/12 06:25:36;;;;;;;8.30;8.20;;;0.90;99.90;;;;;;5002398;28;20553;-74
2024/01/12 06:28:04;;;;;;;8.80;8.70;;;1.00;99.90;;;;;;5008542;28;20572;-74
2024/01/12 06:30:31;;;;;;;8.33;8.23;;;1.00;99.90;;;;;;5013092;28;21079;-75
2024/01/12 06:32:58;;;;;;;8.40;8.30;;;1.10;99.90;;;;;;5011235;28;20482;-75
2024/01/12 06:35:25;;;;;;;8.83;8.73;;;1.00;99.90;;;;;;4998268;28;20545;-74
2024/01/12 06:37:52;;;;;;;8.70;8.60;;;1.00;99.90;;;;;;5014201;28;21092;-74
2024/01/12 06:40:20;;;;;;;8.10;8.00;;;1.00;99.90;;;;;;5001166;28;20472;-75
2024/01/12 06:42:47;;;;;;;8.13;8.03;;;0.90;99.90;;;;;;4998102;28;21095;-75
2024/01/12 06:45:14;;;;;;;8.00;7.90;;;1.00;99.90;;;;;;5009429;28;20491;-74
2024/01/12 06:47:44;;;;;;;7.90;7.80;;;1.00;99.90;;;;;;5008428;28;20497;-75
2024/01/12 06:50:11;;;;;;;8.00;7.90;;;1.00;99.90;;;;;;5005803;28;20467;-76
2024/01/12 06:52:38;;;;;;;8.10;8.00;;;1.00;99.90;;;;;;5007778;28;20465;-73
2024/01/12 06:55:06;;;;;;;7.80;7.70;;;0.90;99.90;;;;;;5003983;28;20558;-73
2024/01/12 06:57:34;;;;;;;8.23;8.13;;;0.90;99.90;;;;;;5004485;28;20852;-74
2024/01/12 07:00:00;;;;;;;8.23;8.13;;;1.00;99.90;;;;;;5004238;28;20455;-75
2024/01/12 07:02:27;;;;;;;8.50;8.40;;;0.90;99.90;;;;;;5004484;28;21001;-73
2024/01/12 07:04:56;;;;;;;8.30;8.20;;;0.90;99.90;;;;;;5006578;28;20856;-75
2024/01/12 07:07:23;;;;;;;8.53;8.43;;;0.90;99.90;;;;;;5000564;28;20477;-74
2024/01/12 07:09:50;;;;;;;8.43;8.33;;;1.00;99.90;;;;;;4997137;28;20732;-75
2024/01/12 07:12:17;;;;;;;8.43;8.33;;;1.10;99.90;;;;;;5001664;28;20462;-74
2024/01/12 07:14:45;;;;;;;8.80;8.70;;;1.10;99.90;;;;;;5002307;28;20486;-73
2024/01/12 07:17:13;;;;;;;8.73;8.63;;;1.10;99.90;;;;;;4996335;28;20474;-75
2024/01/12 07:19:42;;;;;;;8.67;8.57;;;1.10;99.90;;;;;;5001572;28;20466;-75
2024/01/12 07:22:09;;;;;;;8.77;8.67;;;1.20;99.90;;;;;;5007741;28;20497;-73
2024/01/12 07:24:36;;;;;;;8.67;8.57;;;1.20;99.90;;;;;;5003292;28;20479;-73
2024/01/12 07:27:03;;;;;;;8.70;8.60;;;1.20;99.90;;;;;;5006218;28;20468;-73
2024/01/12 07:29:29;;;;;;;8.57;8.47;;;1.10;99.90;;;;;;5005701;28;21026;-75
2024/01/12 07:31:58;;;;;;;8.57;8.47;;;1.10;99.90;;;;;;5008112;28;20842;-73
2024/01/12 07:34:24;;;;;;;9.40;9.20;;;1.10;99.90;;;;;;5010071;28;20462;-75
2024/01/12 07:36:52;;;;;;;8.97;8.87;;;1.20;99.90;;;;;;5004789;28;20827;-74
2024/01/12 07:39:18;;;;;;;9.33;9.13;;;1.20;99.90;;;;;;5003951;28;20469;-75
2024/01/12 07:41:46;;;;;;;9.17;8.97;;;1.20;99.90;;;;;;5003788;28;20924;-75
2024/01/12 07:44:13;;;;;;;10.00;9.80;;;1.30;99.90;;;;;;5011030;28;20551;-73
2024/01/12 07:46:44;;;;;;;9.80;9.60;;;1.20;99.90;;;;;;5015574;28;20474;-75
2024/01/12 07:49:13;;;;;;;9.50;9.30;;;1.30;99.90;;;;;;5005747;28;20469;-74
2024/01/12 07:51:40;;;;;;;9.37;9.17;;;1.20;99.90;;;;;;4995949;28;20550;-74
2024/01/12 07:54:08;;;;;;;9.50;9.30;;;1.10;99.90;;;;;;4991166;28;21037;-73
2024/01/12 07:56:35;;;;;;;8.93;8.83;;;1.10;99.90;;;;;;4989115;28;20468;-73
2024/01/12 07:59:02;;;;;;;8.63;8.53;;;1.10;99.90;;;;;;4992524;28;20463;-74
2024/01/12 08:01:29;;;;;;;9.37;9.17;;;1.10;99.90;;;;;;4997587;28;20470;-74
2024/01/12 08:03:56;;;;;;;9.17;9.00;;;1.20;99.90;;;;;;4993970;28;20496;-74
2024/01/12 08:06:26;;;;;;;9.47;9.27;;;1.20;99.90;;;;;;4995213;28;20466;-73
2024/01/12 08:08:53;;;;;;;9.27;9.07;;;1.10;99.90;;;;;;4995357;28;20464;-75
2024/01/12 08:11:20;;;;;;;8.73;8.63;;;1.10;99.90;;;;;;4991360;28;21027;-73
2024/01/12 08:13:47;;;;;;;8.27;8.17;;;1.10;99.90;;;;;;4998066;28;20491;-73
2024/01/12 08:16:29;;;;;;;8.90;8.80;;;1.10;99.90;;;;;;4996955;28;20479;-73
2024/01/12 08:18:56;;;;;;;8.30;8.20;;;1.10;99.90;;;;;;4995333;28;20530;-74
2024/01/12 08:21:24;;;;;;;8.90;8.80;;;1.00;99.90;;;;;;4992430;28;21007;-74
2024/01/12 08:23:51;;;;;;;8.20;8.10;;;1.00;99.90;;;;;;4991648;28;20495;-74
2024/01/12 08:26:19;;;;;;;8.43;8.33;;;1.00;99.90;;;;;;4995859;28;20461;-74
2024/01/12 08:28:51;;;;;;;9.40;9.20;;;1.10;99.90;;;;;;4996273;28;21040;-73
2024/01/12 08:31:18;;;;;;;8.53;8.43;;;1.10;99.90;;;;;;4994774;28;20463;-73
2024/01/12 08:33:48;;;;;;;8.60;8.50;;;1.20;99.90;;;;;;4994739;28;20467;-73
2024/01/12 08:36:14;;;;;;;8.90;8.80;;;1.10;99.90;;;;;;4988181;28;20528;-74
2024/01/12 08:38:43;;;;;;;8.60;8.50;;;1.20;99.90;;;;;;4995366;28;20473;-73
2024/01/12 08:41:11;;;;;;;8.20;8.10;;;1.10;99.90;;;;;;4992744;28;20478;-73
2024/01/12 08:43:38;;;;;;;8.77;8.67;;;1.10;99.90;;;;;;4995996;28;20530;-74
2024/01/12 08:46:08;;;;;;;8.90;8.80;;;1.20;99.90;;;;;;4995962;28;20466;-74
2024/01/12 08:48:34;;;;;;;9.03;8.93;;;1.30;99.90;;;;;;4991465;28;20471;-74
2024/01/12 08:51:01;;;;;;;9.40;9.20;;;1.30;99.90;;;;;;4989363;28;20473;-73
2024/01/12 08:53:29;;;;;;;9.50;9.30;;;1.30;99.90;;;;;;4995461;28;20481;-73
2024/01/12 08:55:57;;;;;;;9.40;9.20;;;1.30;99.90;;;;;;4994957;28;20974;-74
2024/01/12 08:58:24;;;;;;;8.43;8.33;;;1.40;99.90;;;;;;4992747;28;21024;-74
2024/01/12 09:00:51;;;;;;;8.90;8.80;;;1.40;99.90;;;;;;4997162;28;21869;-73
2024/01/12 09:03:18;;;;;;;8.53;8.43;;;1.40;99.90;;;;;;4997456;28;21229;-74
2024/01/12 09:05:45;;;;;;;7.97;7.87;;;1.30;99.90;;;;;;4995310;28;20465;-74
2024/01/12 09:08:12;;;;;;;9.27;9.07;;;1.20;99.90;;;;;;4993610;28;20857;-74
2024/01/12 09:10:38;;;;;;;8.90;8.80;;;1.30;99.90;;;;;;4997797;28;21317;-74
2024/01/12 09:13:06;;;;;;;8.97;8.87;;;1.30;99.90;;;;;;4996626;28;21035;-73
2024/01/12 09:15:33;;;;;;;9.60;9.40;;;1.20;99.90;;;;;;4992048;28;20461;-74
2024/01/12 09:18:00;;;;;;;8.90;8.80;;;1.30;99.90;;;;;;4991336;28;20471;-74
2024/01/12 09:20:28;;;;;;;8.27;8.17;;;1.30;99.90;;;;;;4996630;28;20520;-74
2024/01/12 09:22:54;;;;;;;8.43;8.33;;;1.40;99.90;;;;;;4994543;28;20625;-74
2024/01/12 09:25:21;;;;;;;8.63;8.53;;;1.40;99.90;;;;;;4992092;28;20462;-73
2024/01/12 09:27:50;;;;;;;8.70;8.60;;;1.40;99.90;;;;;;4997028;28;20477;-73
2024/01/12 09:30:18;;;;;;;8.27;8.17;;;1.40;99.90;;;;;;4992446;28;20468;-73
2024/01/12 09:32:45;;;;;;;8.73;8.63;;;1.50;99.90;;;;;;4996825;28;20502;-73
2024/01/12 09:35:12;;;;;;;7.90;7.80;;;1.50;99.90;;;;;;4996064;28;20471;-74
2024/01/12 09:37:38;;;;;;;7.93;7.83;;;1.50;99.90;;;;;;4993020;28;20474;-73
2024/01/12 09:40:06;;;;;;;8.57;8.47;;;1.50;99.90;;;;;;4993818;28;20480;-72
2024/01/12 09:42:34;;;;;;;9.00;8.90;;;1.50;99.90;;;;;;4994247;28;20474;-72
2024/01/12 09:45:01;;;;;;;8.30;8.20;;;1.50;99.90;;;;;;4995308;28;20818;-73
2024/01/12 09:47:29;;;;;;;8.60;8.50;;;1.60;99.90;;;;;;4995105;28;20481;-73
2024/01/12 09:49:57;;;;;;;8.40;8.30;;;1.60;99.90;;;;;;4987475;28;20815;-73
2024/01/12 09:52:24;;;;;;;8.43;8.33;;;1.60;99.90;;;;;;4993496;28;20982;-73
2024/01/12 09:54:51;;;;;;;8.17;8.07;;;1.60;99.90;;;;;;4995554;28;20467;-72
2024/01/12 09:57:19;;;;;;;8.33;8.23;;;1.60;99.90;;;;;;4992850;28;20473;-73
2024/01/12 09:59:51;;;;;;;8.63;8.53;;;1.50;99.90;;;;;;4995508;28;20463;-72
2024/01/12 10:02:18;;;;;;;8.57;8.47;;;1.60;99.90;;;;;;4990872;28;20493;-72
2024/01/12 10:04:46;;;;;;;8.70;8.60;;;1.60;99.90;;;;;;4997243;28;20539;-72
2024/01/12 10:07:13;;;;;;;8.20;8.10;;;1.60;99.90;;;;;;4993258;28;20550;-72
2024/01/12 10:09:41;;;;;;;8.60;8.50;;;1.50;99.90;;;;;;4995336;28;20784;-72
2024/01/12 10:12:08;;;;;;;9.10;9.00;;;1.60;99.90;;;;;;4996433;28;20479;-72
2024/01/12 10:14:35;;;;;;;9.40;9.20;;;1.60;99.90;;;;;;4990376;28;20492;-72
2024/01/12 10:17:02;;;;;;;9.00;8.90;;;1.70;99.90;;;;;;4992656;28;20991;-72
2024/01/12 10:19:29;;;;;;;9.33;9.13;;;1.70;99.90;;;;;;4995647;28;20729;-72
2024/01/12 10:21:57;;;;;;;9.50;9.30;;;1.70;99.90;;;;;;4997062;28;20529;-72
2024/01/12 10:24:24;;;;;;;9.37;9.17;;;1.60;99.90;;;;;;4995809;28;20495;-72
2024/01/12 10:26:52;;;;;;;9.03;8.93;;;1.70;99.90;;;;;;4992854;28;20460;-72
2024/01/12 10:29:19;;;;;;;9.60;9.40;;;1.70;99.90;;;;;;4990328;28;20488;-71
2024/01/12 10:31:48;;;;;;;8.80;8.70;;;1.70;99.90;;;;;;4996292;28;20493;-72
2024/01/12 10:34:15;;;;;;;9.10;8.90;;;1.70;99.90;;;;;;4991143;28;20471;-72
2024/01/12 10:36:42;;;;;;;9.60;9.40;;;1.60;99.90;;;;;;4992809;28;20979;-72
2024/01/12 10:39:13;;;;;;;8.87;8.77;;;1.70;99.90;;;;;;4992868;28;20471;-71
2024/01/12 10:41:41;;;;;;;8.83;8.73;;;1.70;99.90;;;;;;4996198;28;20561;-72
2024/01/12 10:44:08;;;;;;;8.80;8.70;;;1.70;99.90;;;;;;4994057;28;20888;-71
2024/01/12 10:46:41;;;;;;;8.97;8.87;;;1.70;99.90;;;;;;4990018;28;20470;-73
2024/01/12 10:49:13;;;;;;;8.47;8.37;;;1.60;99.90;;;;;;4992649;28;20477;-72
2024/01/12 10:51:47;;;;;;;8.90;8.80;;;1.60;99.90;;;;;;4996516;28;20548;-73
2024/01/12 10:54:22;;;;;;;8.90;8.77;;;1.60;99.90;;;;;;4998915;28;20944;-71
2024/01/12 10:56:49;;;;;;;9.20;9.00;;;1.70;99.90;;;;;;4996853;28;20497;-71
2024/01/12 10:59:18;;;;;;;8.63;8.53;;;1.70;99.90;;;;;;4998586;28;20470;-72
2024/01/12 11:01:46;;;;;;;9.10;8.90;;;1.70;99.90;;;;;;4994184;28;20998;-71
2024/01/12 11:04:15;;;;;;;8.90;8.80;;;1.80;99.90;;;;;;4994213;28;20498;-71
2024/01/12 11:06:44;;;;;;;9.40;9.20;;;1.80;99.90;;;;;;4996641;28;20475;-71
2024/01/12 11:09:16;;;;;;;8.23;8.13;;;1.90;99.90;;;;;;4998543;28;20719;-70
2024/01/12 11:11:50;;;;;;;8.33;8.23;;;1.90;99.90;;;;;;4995784;28;20969;-72
2024/01/12 11:14:20;;;;;;;9.00;8.90;;;1.80;99.90;;;;;;4993760;28;20494;-71
2024/01/12 11:16:47;;;;;;;9.17;8.97;;;1.90;99.90;;;;;;4998671;28;20472;-71
2024/01/12 11:19:14;;;;;;;9.60;9.40;;;2.00;99.90;;;;;;4998021;28;20540;-71
2024/01/12 11:21:42;;;;;;;10.13;9.93;;;2.00;99.90;;;;;;4996298;28;20494;-71
2024/01/12 11:24:11;;;;;;;9.50;9.30;;;2.20;99.90;;;;;;4995876;28;20486;-71
2024/01/12 11:26:38;;;;;;;9.17;8.97;;;2.20;99.90;;;;;;4998549;28;20566;-71
2024/01/12 11:29:12;;;;;;;10.17;9.97;;;2.20;99.90;;;;;;4995497;28;20467;-70
2024/01/12 11:31:48;;;;;;;9.20;9.00;;;2.30;99.90;;;;;;4996845;28;20473;-70
2024/01/12 11:34:17;;;;;;;9.40;9.20;;;2.20;99.90;;;;;;4996560;28;20471;-70
2024/01/12 11:36:43;;;;;;;9.10;8.90;;;2.20;99.90;;;;;;4997426;28;20490;-70
2024/01/12 11:39:12;;;;;;;9.87;9.67;;;2.20;99.90;;;;;;4995757;28;21225;-71
2024/01/12 11:41:44;;;;;;;9.50;9.30;;;2.30;99.90;;;;;;4995148;28;20942;-73
2024/01/12 11:44:12;;;;;;;9.80;9.60;;;2.20;99.90;;;;;;4994537;28;20509;-71
2024/01/12 11:46:41;;;;;;;10.80;10.60;;;2.30;99.90;;;;;;4991396;28;20491;-72
2024/01/12 11:49:08;;;;;;;11.20;10.90;;;2.40;99.90;;;;;;4996290;28;20470;-71
2024/01/12 11:51:35;;;;;;;10.10;9.90;;;2.60;99.90;;;;;;4995622;28;20479;-72
2024/01/12 11:54:03;;;;;;;10.63;10.43;;;2.40;99.90;;;;;;4993210;28;20481;-71
2024/01/12 11:56:31;;;;;;;10.63;10.43;;;2.30;99.90;;;;;;4997974;28;20473;-71
2024/01/12 11:58:57;;;;;;;10.20;10.00;;;2.40;99.90;;;;;;4995561;28;20462;-72
2024/01/12 12:01:26;;;;;;;9.57;9.37;;;2.40;99.90;;;;;;4998652;28;20473;-72
2024/01/12 12:03:55;;;;;;;9.90;9.70;;;2.30;99.90;;;;;;4984360;28;20506;-71
2024/01/12 12:06:22;;;;;;;10.60;10.40;;;2.20;99.90;;;;;;4993735;28;20527;-70
2024/01/12 12:08:52;;;;;;;9.60;9.40;;;2.40;99.90;;;;;;4994937;28;20467;-71
2024/01/12 12:11:19;;;;;;;10.37;10.17;;;2.20;99.90;;;;;;4992434;28;20508;-72
2024/01/12 12:13:46;;;;;;;10.50;10.30;;;2.30;99.90;;;;;;4994063;28;20996;-70
2024/01/12 12:16:13;;;;;;;10.33;10.13;;;2.40;99.90;;;;;;4996459;28;20473;-71
2024/01/12 12:18:42;;;;;;;10.10;9.90;;;2.50;99.90;;;;;;4996377;28;20476;-72
2024/01/12 12:21:10;;;;;;;10.63;10.43;;;2.50;99.90;;;;;;4992777;28;20456;-71
2024/01/12 12:23:40;;;;;;;10.00;9.80;;;2.60;99.90;;;;;;4987502;28;20998;-72
2024/01/12 12:26:08;;;;;;;9.90;9.70;;;2.60;99.90;;;;;;4997081;28;20480;-71
2024/01/12 12:28:35;;;;;;;9.90;9.70;;;2.50;99.90;;;;;;4995215;28;20950;-70
2024/01/12 12:31:03;;;;;;;9.90;9.70;;;2.60;99.90;;;;;;4995329;28;20812;-71
2024/01/12 12:33:30;;;;;;;9.67;9.47;;;2.60;99.90;;;;;;4994132;28;20498;-71
2024/01/12 12:36:07;;;;;;;9.60;9.40;;;2.70;99.90;;;;;;4995888;28;20464;-71
2024/01/12 12:38:34;;;;;;;9.07;8.87;;;2.60;99.90;;;;;;4992089;28;20463;-70
2024/01/12 12:41:02;;;;;;;9.20;9.00;;;2.60;99.90;;;;;;4994826;28;20476;-72
2024/01/12 12:43:29;;;;;;;9.07;8.87;;;2.60;99.90;;;;;;4994072;28;20463;-71
2024/01/12 12:45:56;;;;;;;9.70;9.50;;;2.50;99.90;;;;;;4995191;28;20488;-70
2024/01/12 12:48:26;;;;;;;9.30;9.10;;;2.50;99.90;;;;;;4996445;28;20836;-72
2024/01/12 12:50:53;;;;;;;8.73;8.63;;;2.60;99.90;;;;;;4990321;28;20522;-72
2024/01/12 12:53:22;;;;;;;9.40;9.20;;;2.40;99.90;;;;;;4991028;28;20530;-70
2024/01/12 12:55:49;;;;;;;8.23;8.13;;;2.40;99.90;;;;;;4996580;28;20470;-71
2024/01/12 12:58:16;;;;;;;9.30;9.10;;;2.40;99.90;;;;;;4994145;28;20479;-71